sensor_id;sensor_type;location;lat;lon;timestamp;pressure;altitude;pressure_sealevel;temperature;humidity
24558;BME280;12726;49.148;8.582;2023-09-08T00:01:00;100503.56;;;17.55;80.12
24558;BME280;12726;49.148;8.582;2023-09-08T00:03:46;100501.38;;;17.52;80.21
24558;BME280;12726;49.148;8.582;2023-09-08T00:06:31;100502.91;;;17.43;80.28
24558;BME280;12726;49.148;8.582;2023-09-08T00:09:17;100496.84;;;17.36;80.54
24558;BME280;12726;49.148;8.582;2023-09-08T00:12:03;100496.44;;;17.27;80.82
24558;BME280;12726;49.148;8.582;2023-09-08T00:14:49;100489.41;;;17.26;80.93
24558;BME280;12726;49.148;8.582;2023-09-08T00:17:34;100490.50;;;17.30;80.79
24558;BME280;12726;49.148;8.582;2023-09-08T00:20:20;100490.75;;;17.29;80.67
24558;BME280;12726;49.148;8.582;2023-09-08T00:23:06;100480.66;;;17.24;81.06
24558;BME280;12726;49.148;8.582;2023-09-08T00:25:52;100487.16;;;17.23;81.12
24558;BME280;12726;49.148;8.582;2023-09-08T00:28:37;100486.91;;;17.25;80.98
24558;BME280;12726;49.148;8.582;2023-09-08T00:31:23;100484.50;;;17.28;80.98
24558;BME280;12726;49.148;8.582;2023-09-08T00:34:08;100486.72;;;17.31;80.47
24558;BME280;12726;49.148;8.582;2023-09-08T00:36:54;100480.75;;;17.34;80.51
24558;BME280;12726;49.148;8.582;2023-09-08T00:39:39;100486.28;;;17.39;80.21
24558;BME280;12726;49.148;8.582;2023-09-08T00:42:26;100484.91;;;17.42;79.73
24558;BME280;12726;49.148;8.582;2023-09-08T00:45:11;100478.97;;;17.45;79.60
24558;BME280;12726;49.148;8.582;2023-09-08T00:47:56;100473.59;;;17.50;79.19
24558;BME280;12726;49.148;8.582;2023-09-08T00:50:42;100475.22;;;17.51;78.84
24558;BME280;12726;49.148;8.582;2023-09-08T00:53:27;100471.94;;;17.49;79.37
24558;BME280;12726;49.148;8.582;2023-09-08T00:56:13;100484.16;;;17.46;79.31
24558;BME280;12726;49.148;8.582;2023-09-08T00:59:01;100475.19;;;17.46;79.30
24558;BME280;12726;49.148;8.582;2023-09-08T01:01:47;100468.38;;;17.48;79.29
24558;BME280;12726;49.148;8.582;2023-09-08T01:04:33;100469.22;;;17.49;79.30
24558;BME280;12726;49.148;8.582;2023-09-08T01:07:19;100474.97;;;17.52;79.19
24558;BME280;12726;49.148;8.582;2023-09-08T01:10:05;100472.75;;;17.49;79.13
24558;BME280;12726;49.148;8.582;2023-09-08T01:12:50;100476.84;;;17.47;79.45
24558;BME280;12726;49.148;8.582;2023-09-08T01:15:37;100468.19;;;17.55;79.53
24558;BME280;12726;49.148;8.582;2023-09-08T01:18:23;100475.03;;;17.57;79.41
24558;BME280;12726;49.148;8.582;2023-09-08T01:21:33;100476.34;;;17.55;79.52
24558;BME280;12726;49.148;8.582;2023-09-08T01:27:35;100468.06;;;17.67;78.90
24558;BME280;12726;49.148;8.582;2023-09-08T01:30:22;100472.38;;;17.63;79.50
24558;BME280;12726;49.148;8.582;2023-09-08T01:33:08;100469.28;;;17.54;79.89
24558;BME280;12726;49.148;8.582;2023-09-08T01:35:54;100471.69;;;17.50;80.05
24558;BME280;12726;49.148;8.582;2023-09-08T01:38:39;100474.84;;;17.42;80.16
24558;BME280;12726;49.148;8.582;2023-09-08T01:41:24;100466.59;;;17.32;80.50
24558;BME280;12726;49.148;8.582;2023-09-08T01:44:11;100473.31;;;17.25;81.06
24558;BME280;12726;49.148;8.582;2023-09-08T01:46:57;100469.44;;;17.20;81.40
24558;BME280;12726;49.148;8.582;2023-09-08T01:49:42;100470.88;;;17.28;81.03
24558;BME280;12726;49.148;8.582;2023-09-08T01:52:27;100463.16;;;17.20;81.24
24558;BME280;12726;49.148;8.582;2023-09-08T01:55:12;100467.78;;;17.19;81.56
24558;BME280;12726;49.148;8.582;2023-09-08T01:57:58;100463.13;;;17.15;81.89
24558;BME280;12726;49.148;8.582;2023-09-08T02:00:49;100465.03;;;17.14;81.69
24558;BME280;12726;49.148;8.582;2023-09-08T02:03:35;100457.69;;;17.15;81.94
24558;BME280;12726;49.148;8.582;2023-09-08T02:06:20;100465.53;;;17.11;81.98
24558;BME280;12726;49.148;8.582;2023-09-08T02:09:06;100463.56;;;17.07;82.31
24558;BME280;12726;49.148;8.582;2023-09-08T02:11:51;100471.44;;;17.03;82.32
24558;BME280;12726;49.148;8.582;2023-09-08T02:14:37;100474.38;;;17.02;82.53
24558;BME280;12726;49.148;8.582;2023-09-08T02:17:24;100464.09;;;17.04;82.43
24558;BME280;12726;49.148;8.582;2023-09-08T02:20:10;100461.03;;;17.00;82.47
24558;BME280;12726;49.148;8.582;2023-09-08T02:22:55;100459.47;;;17.04;82.42
24558;BME280;12726;49.148;8.582;2023-09-08T02:25:43;100466.22;;;17.02;82.63
24558;BME280;12726;49.148;8.582;2023-09-08T02:28:28;100469.97;;;16.96;83.04
24558;BME280;12726;49.148;8.582;2023-09-08T02:31:17;100464.53;;;16.96;83.19
24558;BME280;12726;49.148;8.582;2023-09-08T02:34:04;100453.91;;;16.94;83.13
24558;BME280;12726;49.148;8.582;2023-09-08T02:36:49;100455.16;;;16.87;83.95
24558;BME280;12726;49.148;8.582;2023-09-08T02:39:34;100465.41;;;16.79;84.23
24558;BME280;12726;49.148;8.582;2023-09-08T02:42:20;100457.38;;;16.68;84.95
24558;BME280;12726;49.148;8.582;2023-09-08T02:45:06;100464.63;;;16.62;85.29
24558;BME280;12726;49.148;8.582;2023-09-08T02:47:52;100463.53;;;16.63;85.73
24558;BME280;12726;49.148;8.582;2023-09-08T02:50:38;100465.81;;;16.71;85.07
24558;BME280;12726;49.148;8.582;2023-09-08T02:53:24;100461.22;;;16.72;84.75
24558;BME280;12726;49.148;8.582;2023-09-08T02:56:12;100463.09;;;16.71;84.88
24558;BME280;12726;49.148;8.582;2023-09-08T02:58:58;100466.91;;;16.70;84.98
24558;BME280;12726;49.148;8.582;2023-09-08T03:01:43;100465.78;;;16.66;84.95
24558;BME280;12726;49.148;8.582;2023-09-08T03:04:30;100461.41;;;16.65;85.69
24558;BME280;12726;49.148;8.582;2023-09-08T03:07:17;100466.78;;;16.60;85.59
24558;BME280;12726;49.148;8.582;2023-09-08T03:10:03;100462.03;;;16.56;85.87
24558;BME280;12726;49.148;8.582;2023-09-08T03:12:48;100468.88;;;16.58;86.01
24558;BME280;12726;49.148;8.582;2023-09-08T03:15:34;100460.72;;;16.58;86.14
24558;BME280;12726;49.148;8.582;2023-09-08T03:18:19;100468.56;;;16.55;85.67
24558;BME280;12726;49.148;8.582;2023-09-08T03:21:05;100475.31;;;16.52;85.92
24558;BME280;12726;49.148;8.582;2023-09-08T03:23:55;100479.88;;;16.47;85.99
24558;BME280;12726;49.148;8.582;2023-09-08T03:26:41;100478.69;;;16.42;86.51
24558;BME280;12726;49.148;8.582;2023-09-08T03:29:26;100477.81;;;16.37;86.62
24558;BME280;12726;49.148;8.582;2023-09-08T03:32:11;100476.91;;;16.31;87.23
24558;BME280;12726;49.148;8.582;2023-09-08T03:34:56;100483.41;;;16.30;87.30
24558;BME280;12726;49.148;8.582;2023-09-08T03:37:42;100486.59;;;16.27;87.45
24558;BME280;12726;49.148;8.582;2023-09-08T03:40:29;100485.22;;;16.25;87.82
24558;BME280;12726;49.148;8.582;2023-09-08T03:43:14;100487.38;;;16.23;88.16
24558;BME280;12726;49.148;8.582;2023-09-08T03:45:59;100479.47;;;16.21;88.54
24558;BME280;12726;49.148;8.582;2023-09-08T03:48:45;100482.16;;;16.21;88.11
24558;BME280;12726;49.148;8.582;2023-09-08T03:51:30;100477.25;;;16.18;88.48
24558;BME280;12726;49.148;8.582;2023-09-08T03:54:15;100481.03;;;16.17;88.40
24558;BME280;12726;49.148;8.582;2023-09-08T03:57:02;100485.16;;;16.20;87.96
24558;BME280;12726;49.148;8.582;2023-09-08T03:59:48;100484.06;;;16.21;87.92
24558;BME280;12726;49.148;8.582;2023-09-08T04:02:33;100486.22;;;16.19;87.86
24558;BME280;12726;49.148;8.582;2023-09-08T04:05:19;100487.78;;;16.15;88.12
24558;BME280;12726;49.148;8.582;2023-09-08T04:08:05;100487.47;;;16.11;88.12
24558;BME280;12726;49.148;8.582;2023-09-08T04:10:50;100497.16;;;16.07;88.48
24558;BME280;12726;49.148;8.582;2023-09-08T04:13:36;100497.06;;;16.02;88.33
24558;BME280;12726;49.148;8.582;2023-09-08T04:16:22;100495.16;;;15.86;88.86
24558;BME280;12726;49.148;8.582;2023-09-08T04:19:07;100504.94;;;15.70;89.59
24558;BME280;12726;49.148;8.582;2023-09-08T04:21:52;100500.38;;;15.59;90.10
24558;BME280;12726;49.148;8.582;2023-09-08T04:24:38;100513.97;;;15.47;90.78
24558;BME280;12726;49.148;8.582;2023-09-08T04:27:23;100510.81;;;15.39;91.33
24558;BME280;12726;49.148;8.582;2023-09-08T04:30:11;100503.41;;;15.34;92.19
24558;BME280;12726;49.148;8.582;2023-09-08T04:32:56;100514.50;;;15.33;92.53
24558;BME280;12726;49.148;8.582;2023-09-08T04:35:45;100509.91;;;15.33;92.66
24558;BME280;12726;49.148;8.582;2023-09-08T04:38:31;100511.06;;;15.37;92.81
24558;BME280;12726;49.148;8.582;2023-09-08T04:41:16;100504.09;;;15.41;92.77
24558;BME280;12726;49.148;8.582;2023-09-08T04:44:04;100499.22;;;15.43;92.77
24558;BME280;12726;49.148;8.582;2023-09-08T04:46:50;100515.75;;;15.42;92.90
24558;BME280;12726;49.148;8.582;2023-09-08T04:49:36;100517.88;;;15.40;92.90
24558;BME280;12726;49.148;8.582;2023-09-08T04:52:22;100513.44;;;15.34;93.33
24558;BME280;12726;49.148;8.582;2023-09-08T04:55:09;100519.78;;;15.27;93.93
24558;BME280;12726;49.148;8.582;2023-09-08T04:57:54;100512.88;;;15.20;94.46
24558;BME280;12726;49.148;8.582;2023-09-08T05:00:39;100532.25;;;15.12;94.97
24558;BME280;12726;49.148;8.582;2023-09-08T05:03:26;100525.53;;;15.03;94.76
24558;BME280;12726;49.148;8.582;2023-09-08T05:06:12;100527.78;;;14.94;94.81
24558;BME280;12726;49.148;8.582;2023-09-08T05:08:59;100530.16;;;14.91;95.20
24558;BME280;12726;49.148;8.582;2023-09-08T05:11:44;100533.69;;;14.91;95.61
24558;BME280;12726;49.148;8.582;2023-09-08T05:14:30;100543.72;;;14.91;95.92
24558;BME280;12726;49.148;8.582;2023-09-08T05:17:15;100538.03;;;14.92;95.99
24558;BME280;12726;49.148;8.582;2023-09-08T05:20:02;100538.03;;;14.92;96.07
24558;BME280;12726;49.148;8.582;2023-09-08T05:22:47;100546.97;;;14.93;96.33
24558;BME280;12726;49.148;8.582;2023-09-08T05:25:32;100539.81;;;14.98;96.20
24558;BME280;12726;49.148;8.582;2023-09-08T05:28:18;100543.22;;;15.05;96.61
24558;BME280;12726;49.148;8.582;2023-09-08T05:31:03;100550.16;;;15.13;96.75
24558;BME280;12726;49.148;8.582;2023-09-08T05:33:49;100552.97;;;15.18;96.44
24558;BME280;12726;49.148;8.582;2023-09-08T05:36:36;100552.25;;;15.22;96.26
24558;BME280;12726;49.148;8.582;2023-09-08T05:39:21;100553.53;;;15.32;96.07
24558;BME280;12726;49.148;8.582;2023-09-08T05:42:07;100550.69;;;15.38;95.34
24558;BME280;12726;49.148;8.582;2023-09-08T05:44:52;100554.91;;;15.46;95.09
24558;BME280;12726;49.148;8.582;2023-09-08T05:47:39;100559.59;;;15.50;94.65
24558;BME280;12726;49.148;8.582;2023-09-08T05:50:24;100562.19;;;15.57;94.46
24558;BME280;12726;49.148;8.582;2023-09-08T05:53:11;100554.50;;;15.65;94.01
24558;BME280;12726;49.148;8.582;2023-09-08T05:55:56;100560.47;;;15.79;93.87
24558;BME280;12726;49.148;8.582;2023-09-08T05:58:41;100559.44;;;15.97;92.99
24558;BME280;12726;49.148;8.582;2023-09-08T06:01:27;100564.19;;;16.18;92.51
24558;BME280;12726;49.148;8.582;2023-09-08T06:04:13;100557.50;;;16.42;91.46
24558;BME280;12726;49.148;8.582;2023-09-08T06:06:58;100555.22;;;16.68;90.00
24558;BME280;12726;49.148;8.582;2023-09-08T06:09:45;100549.56;;;16.91;89.12
24558;BME280;12726;49.148;8.582;2023-09-08T06:12:31;100560.81;;;17.16;87.65
24558;BME280;12726;49.148;8.582;2023-09-08T06:15:16;100558.41;;;17.42;86.92
24558;BME280;12726;49.148;8.582;2023-09-08T06:18:02;100556.28;;;17.66;85.35
24558;BME280;12726;49.148;8.582;2023-09-08T06:20:48;100550.84;;;17.92;83.46
24558;BME280;12726;49.148;8.582;2023-09-08T06:23:33;100550.56;;;18.21;82.43
24558;BME280;12726;49.148;8.582;2023-09-08T06:26:20;100559.91;;;18.62;80.29
24558;BME280;12726;49.148;8.582;2023-09-08T06:29:05;100559.88;;;18.99;78.60
24558;BME280;12726;49.148;8.582;2023-09-08T06:31:51;100563.09;;;19.38;76.65
24558;BME280;12726;49.148;8.582;2023-09-08T06:34:36;100554.81;;;19.75;74.45
24558;BME280;12726;49.148;8.582;2023-09-08T06:37:22;100561.97;;;20.21;72.88
24558;BME280;12726;49.148;8.582;2023-09-08T06:40:08;100561.16;;;20.71;70.93
24558;BME280;12726;49.148;8.582;2023-09-08T06:42:54;100562.72;;;21.23;69.32
24558;BME280;12726;49.148;8.582;2023-09-08T06:45:41;100563.53;;;21.88;66.38
24558;BME280;12726;49.148;8.582;2023-09-08T06:48:26;100567.00;;;22.43;63.44
24558;BME280;12726;49.148;8.582;2023-09-08T06:51:11;100569.34;;;22.88;61.99
24558;BME280;12726;49.148;8.582;2023-09-08T06:53:57;100569.13;;;23.32;60.43
24558;BME280;12726;49.148;8.582;2023-09-08T06:56:43;100567.22;;;23.75;58.69
24558;BME280;12726;49.148;8.582;2023-09-08T06:59:30;100567.09;;;24.04;56.71
24558;BME280;12726;49.148;8.582;2023-09-08T07:02:16;100571.03;;;24.36;55.45
24558;BME280;12726;49.148;8.582;2023-09-08T07:05:01;100569.78;;;24.61;55.67
24558;BME280;12726;49.148;8.582;2023-09-08T07:07:51;100564.59;;;25.05;55.04
24558;BME280;12726;49.148;8.582;2023-09-08T07:10:36;100565.63;;;25.36;53.78
24558;BME280;12726;49.148;8.582;2023-09-08T07:13:22;100570.66;;;25.62;53.17
24558;BME280;12726;49.148;8.582;2023-09-08T07:16:08;100566.63;;;25.82;52.01
24558;BME280;12726;49.148;8.582;2023-09-08T07:18:54;100565.72;;;25.59;51.72
24558;BME280;12726;49.148;8.582;2023-09-08T07:21:39;100567.66;;;26.08;51.26
24558;BME280;12726;49.148;8.582;2023-09-08T07:24:24;100571.88;;;26.41;50.89
24558;BME280;12726;49.148;8.582;2023-09-08T07:27:09;100574.41;;;26.60;48.95
24558;BME280;12726;49.148;8.582;2023-09-08T07:30:00;100573.38;;;27.01;48.90
24558;BME280;12726;49.148;8.582;2023-09-08T07:32:47;100563.59;;;26.95;47.85
24558;BME280;12726;49.148;8.582;2023-09-08T07:35:36;100567.13;;;27.17;48.07
24558;BME280;12726;49.148;8.582;2023-09-08T07:38:21;100564.47;;;27.04;48.17
24558;BME280;12726;49.148;8.582;2023-09-08T07:41:07;100564.19;;;27.22;47.19
24558;BME280;12726;49.148;8.582;2023-09-08T07:43:52;100565.41;;;27.39;46.53
24558;BME280;12726;49.148;8.582;2023-09-08T07:46:38;100561.44;;;27.22;46.56
24558;BME280;12726;49.148;8.582;2023-09-08T07:49:24;100570.16;;;27.47;46.43
24558;BME280;12726;49.148;8.582;2023-09-08T07:52:10;100564.84;;;27.67;47.08
24558;BME280;12726;49.148;8.582;2023-09-08T07:54:55;100561.59;;;27.65;46.21
24558;BME280;12726;49.148;8.582;2023-09-08T07:57:41;100575.63;;;27.95;45.47
24558;BME280;12726;49.148;8.582;2023-09-08T08:00:27;100566.69;;;27.98;45.20
24558;BME280;12726;49.148;8.582;2023-09-08T08:03:13;100575.34;;;28.22;45.03
24558;BME280;12726;49.148;8.582;2023-09-08T08:05:59;100577.75;;;28.58;45.11
24558;BME280;12726;49.148;8.582;2023-09-08T08:08:45;100575.28;;;28.83;44.89
24558;BME280;12726;49.148;8.582;2023-09-08T08:11:30;100569.00;;;29.11;44.76
24558;BME280;12726;49.148;8.582;2023-09-08T08:14:15;100569.94;;;29.15;43.23
24558;BME280;12726;49.148;8.582;2023-09-08T08:17:01;100570.47;;;29.47;42.13
24558;BME280;12726;49.148;8.582;2023-09-08T08:19:46;100570.31;;;29.43;43.49
24558;BME280;12726;49.148;8.582;2023-09-08T08:22:33;100561.78;;;29.19;43.00
24558;BME280;12726;49.148;8.582;2023-09-08T08:25:19;100565.53;;;28.59;44.57
24558;BME280;12726;49.148;8.582;2023-09-08T08:28:04;100564.41;;;29.07;45.22
24558;BME280;12726;49.148;8.582;2023-09-08T08:30:50;100562.84;;;29.35;43.96
24558;BME280;12726;49.148;8.582;2023-09-08T08:33:36;100551.41;;;29.66;43.80
24558;BME280;12726;49.148;8.582;2023-09-08T08:36:21;100547.47;;;30.17;42.57
24558;BME280;12726;49.148;8.582;2023-09-08T08:39:08;100554.91;;;30.25;42.33
24558;BME280;12726;49.148;8.582;2023-09-08T08:41:53;100551.06;;;30.18;42.97
24558;BME280;12726;49.148;8.582;2023-09-08T08:44:40;100553.72;;;30.47;42.42
24558;BME280;12726;49.148;8.582;2023-09-08T08:47:27;100555.44;;;30.72;42.67
24558;BME280;12726;49.148;8.582;2023-09-08T08:50:13;100554.59;;;31.17;41.43
24558;BME280;12726;49.148;8.582;2023-09-08T08:52:59;100556.47;;;31.25;40.50
24558;BME280;12726;49.148;8.582;2023-09-08T08:55:49;100547.38;;;31.04;41.11
24558;BME280;12726;49.148;8.582;2023-09-08T08:58:36;100556.09;;;31.27;42.04
24558;BME280;12726;49.148;8.582;2023-09-08T09:01:23;100554.94;;;31.28;43.83
24558;BME280;12726;49.148;8.582;2023-09-08T09:04:10;100557.16;;;31.22;43.72
24558;BME280;12726;49.148;8.582;2023-09-08T09:06:56;100561.78;;;31.79;40.71
24558;BME280;12726;49.148;8.582;2023-09-08T09:09:42;100551.47;;;32.19;40.42
24558;BME280;12726;49.148;8.582;2023-09-08T09:12:29;100549.84;;;31.54;40.58
24558;BME280;12726;49.148;8.582;2023-09-08T09:15:14;100553.31;;;31.27;42.11
24558;BME280;12726;49.148;8.582;2023-09-08T09:18:04;100548.69;;;31.43;42.24
24558;BME280;12726;49.148;8.582;2023-09-08T09:20:58;100556.78;;;31.48;41.09
24558;BME280;12726;49.148;8.582;2023-09-08T09:23:45;100553.72;;;30.92;42.07
24558;BME280;12726;49.148;8.582;2023-09-08T09:26:30;100547.34;;;30.92;41.73
24558;BME280;12726;49.148;8.582;2023-09-08T09:29:18;100561.97;;;31.01;43.82
24558;BME280;12726;49.148;8.582;2023-09-08T09:32:06;100553.09;;;31.44;42.80
24558;BME280;12726;49.148;8.582;2023-09-08T09:34:53;100554.38;;;31.46;42.59
24558;BME280;12726;49.148;8.582;2023-09-08T09:37:40;100554.69;;;31.69;43.16
24558;BME280;12726;49.148;8.582;2023-09-08T09:40:27;100544.44;;;31.98;42.38
24558;BME280;12726;49.148;8.582;2023-09-08T09:43:13;100548.19;;;32.30;42.08
24558;BME280;12726;49.148;8.582;2023-09-08T09:46:00;100552.03;;;32.53;42.30
24558;BME280;12726;49.148;8.582;2023-09-08T09:48:46;100551.16;;;32.37;41.11
24558;BME280;12726;49.148;8.582;2023-09-08T09:51:32;100546.81;;;32.51;40.67
24558;BME280;12726;49.148;8.582;2023-09-08T09:54:17;100534.06;;;32.10;41.15
24558;BME280;12726;49.148;8.582;2023-09-08T09:57:03;100539.28;;;32.12;42.65
24558;BME280;12726;49.148;8.582;2023-09-08T09:59:49;100532.13;;;31.99;40.98
24558;BME280;12726;49.148;8.582;2023-09-08T10:02:38;100527.47;;;31.50;42.70
24558;BME280;12726;49.148;8.582;2023-09-08T10:05:24;100525.63;;;31.18;43.64
24558;BME280;12726;49.148;8.582;2023-09-08T10:08:10;100521.06;;;31.01;43.43
24558;BME280;12726;49.148;8.582;2023-09-08T10:10:56;100530.66;;;30.92;45.19
24558;BME280;12726;49.148;8.582;2023-09-08T10:13:46;100532.34;;;31.29;44.17
24558;BME280;12726;49.148;8.582;2023-09-08T10:16:34;100530.25;;;31.75;42.98
24558;BME280;12726;49.148;8.582;2023-09-08T10:19:21;100533.34;;;32.25;42.49
24558;BME280;12726;49.148;8.582;2023-09-08T10:22:11;100523.72;;;32.23;42.47
24558;BME280;12726;49.148;8.582;2023-09-08T10:24:57;100525.25;;;32.08;41.97
24558;BME280;12726;49.148;8.582;2023-09-08T10:27:48;100526.97;;;32.25;43.32
24558;BME280;12726;49.148;8.582;2023-09-08T10:30:34;100522.00;;;32.46;41.80
24558;BME280;12726;49.148;8.582;2023-09-08T10:33:19;100524.78;;;32.46;42.06
24558;BME280;12726;49.148;8.582;2023-09-08T10:36:09;100515.72;;;32.65;41.66
24558;BME280;12726;49.148;8.582;2023-09-08T10:39:28;100512.69;;;32.70;41.94
24558;BME280;12726;49.148;8.582;2023-09-08T10:42:22;100511.16;;;33.20;41.83
24558;BME280;12726;49.148;8.582;2023-09-08T10:45:15;100512.28;;;33.50;39.36
24558;BME280;12726;49.148;8.582;2023-09-08T10:48:01;100512.91;;;33.59;40.36
24558;BME280;12726;49.148;8.582;2023-09-08T10:50:47;100512.59;;;33.64;38.99
24558;BME280;12726;49.148;8.582;2023-09-08T10:57:16;100505.75;;;33.27;39.69
24558;BME280;12726;49.148;8.582;2023-09-08T11:03:45;100499.66;;;33.21;41.56
24558;BME280;12726;49.148;8.582;2023-09-08T11:06:34;100506.94;;;32.94;41.95
24558;BME280;12726;49.148;8.582;2023-09-08T11:09:20;100498.91;;;33.09;42.73
24558;BME280;12726;49.148;8.582;2023-09-08T11:12:07;100498.28;;;33.15;40.60
24558;BME280;12726;49.148;8.582;2023-09-08T11:14:55;100496.31;;;33.16;41.12
24558;BME280;12726;49.148;8.582;2023-09-08T11:17:41;100494.06;;;33.21;41.86
24558;BME280;12726;49.148;8.582;2023-09-08T11:20:27;100487.78;;;33.24;39.81
24558;BME280;12726;49.148;8.582;2023-09-08T11:23:13;100487.31;;;33.22;40.22
24558;BME280;12726;49.148;8.582;2023-09-08T11:25:59;100485.59;;;33.02;40.49
24558;BME280;12726;49.148;8.582;2023-09-08T11:28:45;100487.66;;;33.05;40.47
24558;BME280;12726;49.148;8.582;2023-09-08T11:31:34;100481.59;;;33.19;41.90
24558;BME280;12726;49.148;8.582;2023-09-08T11:34:20;100482.34;;;33.16;40.78
24558;BME280;12726;49.148;8.582;2023-09-08T11:37:09;100479.75;;;33.07;40.18
24558;BME280;12726;49.148;8.582;2023-09-08T11:39:57;100476.41;;;33.17;41.02
24558;BME280;12726;49.148;8.582;2023-09-08T11:42:45;100481.94;;;33.49;40.25
24558;BME280;12726;49.148;8.582;2023-09-08T11:45:34;100473.66;;;33.52;39.48
24558;BME280;12726;49.148;8.582;2023-09-08T11:48:21;100472.19;;;33.23;40.04
24558;BME280;12726;49.148;8.582;2023-09-08T11:51:07;100457.94;;;33.28;40.62
24558;BME280;12726;49.148;8.582;2023-09-08T11:53:53;100464.31;;;33.45;40.49
24558;BME280;12726;49.148;8.582;2023-09-08T11:56:39;100463.34;;;33.37;39.48
24558;BME280;12726;49.148;8.582;2023-09-08T11:59:25;100469.94;;;32.97;39.08
24558;BME280;12726;49.148;8.582;2023-09-08T12:02:11;100461.97;;;32.80;39.99
24558;BME280;12726;49.148;8.582;2023-09-08T12:04:57;100462.63;;;32.61;39.93
24558;BME280;12726;49.148;8.582;2023-09-08T12:07:44;100460.66;;;32.62;40.76
24558;BME280;12726;49.148;8.582;2023-09-08T12:10:29;100463.28;;;32.39;40.24
24558;BME280;12726;49.148;8.582;2023-09-08T12:13:20;100461.88;;;32.33;41.06
24558;BME280;12726;49.148;8.582;2023-09-08T12:16:17;100454.88;;;32.23;41.02
24558;BME280;12726;49.148;8.582;2023-09-08T12:19:03;100452.09;;;32.23;41.67
24558;BME280;12726;49.148;8.582;2023-09-08T12:21:58;100459.56;;;32.35;41.62
24558;BME280;12726;49.148;8.582;2023-09-08T12:24:55;100467.06;;;32.19;41.84
24558;BME280;12726;49.148;8.582;2023-09-08T12:27:43;100456.78;;;32.35;42.72
24558;BME280;12726;49.148;8.582;2023-09-08T12:30:29;100452.66;;;32.45;41.01
24558;BME280;12726;49.148;8.582;2023-09-08T12:33:16;100453.00;;;32.43;42.23
24558;BME280;12726;49.148;8.582;2023-09-08T12:36:10;100450.78;;;32.64;42.68
24558;BME280;12726;49.148;8.582;2023-09-08T12:38:56;100449.59;;;32.50;41.96
24558;BME280;12726;49.148;8.582;2023-09-08T12:41:42;100457.50;;;32.48;40.97
24558;BME280;12726;49.148;8.582;2023-09-08T12:44:27;100454.38;;;32.65;40.92
24558;BME280;12726;49.148;8.582;2023-09-08T12:47:12;100452.31;;;32.46;39.96
24558;BME280;12726;49.148;8.582;2023-09-08T12:49:58;100441.69;;;32.52;41.09
24558;BME280;12726;49.148;8.582;2023-09-08T12:52:44;100431.44;;;32.56;41.51
24558;BME280;12726;49.148;8.582;2023-09-08T12:55:30;100432.16;;;32.53;39.61
24558;BME280;12726;49.148;8.582;2023-09-08T12:58:16;100431.25;;;32.49;41.79
24558;BME280;12726;49.148;8.582;2023-09-08T13:01:01;100427.94;;;32.43;40.20
24558;BME280;12726;49.148;8.582;2023-09-08T13:03:49;100417.69;;;32.32;39.94
24558;BME280;12726;49.148;8.582;2023-09-08T13:06:34;100432.88;;;32.34;42.35
24558;BME280;12726;49.148;8.582;2023-09-08T13:09:20;100419.66;;;32.31;40.67
24558;BME280;12726;49.148;8.582;2023-09-08T13:12:08;100426.06;;;32.32;42.10
24558;BME280;12726;49.148;8.582;2023-09-08T13:14:54;100423.44;;;32.23;40.53
24558;BME280;12726;49.148;8.582;2023-09-08T13:17:39;100418.94;;;32.06;41.59
24558;BME280;12726;49.148;8.582;2023-09-08T13:20:25;100411.81;;;31.93;41.73
24558;BME280;12726;49.148;8.582;2023-09-08T13:23:10;100419.91;;;31.82;40.96
24558;BME280;12726;49.148;8.582;2023-09-08T13:25:56;100407.78;;;31.63;40.53
24558;BME280;12726;49.148;8.582;2023-09-08T13:28:42;100412.47;;;31.46;40.58
24558;BME280;12726;49.148;8.582;2023-09-08T13:31:28;100409.81;;;31.38;40.25
24558;BME280;12726;49.148;8.582;2023-09-08T13:34:13;100404.81;;;31.43;40.73
24558;BME280;12726;49.148;8.582;2023-09-08T13:36:58;100395.22;;;31.29;40.62
24558;BME280;12726;49.148;8.582;2023-09-08T13:39:44;100397.97;;;31.41;42.05
24558;BME280;12726;49.148;8.582;2023-09-08T13:42:29;100396.84;;;31.30;42.05
24558;BME280;12726;49.148;8.582;2023-09-08T13:45:16;100397.22;;;31.16;42.28
24558;BME280;12726;49.148;8.582;2023-09-08T13:48:01;100391.66;;;31.04;44.00
24558;BME280;12726;49.148;8.582;2023-09-08T13:50:48;100391.91;;;30.87;43.42
24558;BME280;12726;49.148;8.582;2023-09-08T13:53:33;100394.94;;;30.82;43.23
24558;BME280;12726;49.148;8.582;2023-09-08T13:56:19;100381.97;;;30.73;42.32
24558;BME280;12726;49.148;8.582;2023-09-08T13:59:04;100386.72;;;30.73;42.50
24558;BME280;12726;49.148;8.582;2023-09-08T14:01:51;100377.00;;;30.55;43.27
24558;BME280;12726;49.148;8.582;2023-09-08T14:04:37;100374.50;;;30.29;42.57
24558;BME280;12726;49.148;8.582;2023-09-08T14:10:20;100372.13;;;30.07;43.91
24558;BME280;12726;49.148;8.582;2023-09-08T14:13:08;100374.47;;;30.05;44.17
24558;BME280;12726;49.148;8.582;2023-09-08T14:15:57;100370.41;;;30.14;43.66
24558;BME280;12726;49.148;8.582;2023-09-08T14:18:43;100376.22;;;29.88;43.51
24558;BME280;12726;49.148;8.582;2023-09-08T14:21:29;100377.38;;;29.87;43.31
24558;BME280;12726;49.148;8.582;2023-09-08T14:24:16;100377.28;;;29.84;43.62
24558;BME280;12726;49.148;8.582;2023-09-08T14:27:01;100376.78;;;29.82;43.82
24558;BME280;12726;49.148;8.582;2023-09-08T14:29:47;100373.50;;;29.68;44.15
24558;BME280;12726;49.148;8.582;2023-09-08T14:32:33;100369.31;;;29.62;43.82
24558;BME280;12726;49.148;8.582;2023-09-08T14:35:19;100363.97;;;29.56;44.00
24558;BME280;12726;49.148;8.582;2023-09-08T14:38:05;100364.44;;;29.58;44.54
24558;BME280;12726;49.148;8.582;2023-09-08T14:40:55;100363.78;;;29.62;44.05
24558;BME280;12726;49.148;8.582;2023-09-08T14:43:40;100363.53;;;29.67;43.72